PHNLPHJH

Guest
Details From PHNL - Honolulu Intl
To PHJH - KAPALUA
Flight Number -
Tags generated
Created
Modified
Stats Distance 73 nm / 135 km
Max Altitude 4,500 ft / 1,372 m
Waypoints 3
Social Downloads 2
Likes 0
Share VATSIM

Download

Looking for another format? Having issues loading an existing format? Contact us
Advertisement - Login to hide

Notes

Basic altitude profile: - Ascent Rate: 2500ft/min - Ascent Speed: 250kts - Cruise Altitude: 35000ft - Cruise Speed: 420kts - Descent Rate: 1500ft/min - Descent Speed: 250kts

Route

PHNL CKH PHJH

ID Type Via Altitude Latitude Longitude Leg Dist Tot Dist Heading (true) Name
O PHNL APT - 0 ft / 0 m 21.31938˚ -157.92128˚ - 0 nm - Honolulu Intl
CKH DME - 4,500 ft / 1,372 m 21.26511˚ -157.70298˚ 12 nm 12 nm 105° / 105° KOKO HEAD VORTAC
O PHJH APT - 0 ft / 0 m 20.96295˚ -156.67304˚ 60 nm 73 nm 107° / 108° KAPALUA

Altitude Profile

Advertisement - Login to hide

PHNL

Details ICAO PHNL (HNL)
Name Honolulu Intl
Region USA (Hawaii)
Timezone Pacific/Honolulu (UTC-10.0)
Stats Elevation 13 ft / 4 m (AMSL)
Location 21.319376° -157.921281°
Runways 4
Magnetic Variation 9.468° E

METAR

PHNL 220453Z 03011KT 10SM FEW025 SCT034 SCT048 BKN150 BKN260 26/18 A3006

Decode

TAF

PHNL 220529Z 2206/2312 05011KT P6SM FEW025 SCT050 BKN180 FM222000 05015G22KT P6SM FEW025 SCT050 FM230500 05011KT P6SM FEW025 SCT050

Decode

Departure Runways

ID Width Length Bearing (true) Bearing (mag) Surface Threshold Offset Overrun Length
04L 150 ft / 46 m 6,958 ft / 2,121 m 52.84° 43.37° Asphalt 0 ft / 0 m 215 ft / 66 m
04R 150 ft / 46 m 9,008 ft / 2,746 m 52.86° 43.39° Asphalt 0 ft / 0 m 200 ft / 61 m
08L 150 ft / 46 m 12,285 ft / 3,744 m 90.00° 80.53° Asphalt 0 ft / 0 m 1,000 ft / 305 m
08R 200 ft / 61 m 11,985 ft / 3,653 m 90.00° 80.53° Asphalt 0 ft / 0 m 700 ft / 213 m
22L 150 ft / 46 m 9,008 ft / 2,746 m 232.86° 223.39° Asphalt 0 ft / 0 m 215 ft / 66 m
22R 150 ft / 46 m 6,958 ft / 2,121 m 232.85° 223.38° Asphalt 0 ft / 0 m 0 ft / 0 m
26L 200 ft / 61 m 11,985 ft / 3,653 m 270.01° 260.54° Asphalt 0 ft / 0 m 700 ft / 213 m
26R 150 ft / 46 m 12,285 ft / 3,744 m 270.01° 260.54° Asphalt 0 ft / 0 m 655 ft / 200 m

PHJH

Details ICAO PHJH (JHM)
Name KAPALUA
Region USA (Hawaii)
Timezone Pacific/Honolulu (UTC-10.0)
Stats Elevation 254 ft / 77 m (AMSL)
Location 20.962947° -156.673039°
Runways 1
Magnetic Variation 9.507° E

METAR

Not found

TAF

TAF PHJH 212320Z 2200/2224 04016G22KT P6SM SCT025 SCT045 FM220600 04010KT P6SM SCT030 SCT045 FM222000 04013G20KT P6SM SCT030 SCT040

Decode

Destination Runways

ID Width Length Bearing (true) Bearing (mag) Surface Threshold Offset Overrun Length
02 100 ft / 30 m 3,048 ft / 929 m 27.87° 18.36° Asphalt 0 ft / 0 m 0 ft / 0 m
20 100 ft / 30 m 3,048 ft / 929 m 207.87° 198.36° Asphalt 0 ft / 0 m 0 ft / 0 m

Popular Alternatives